createdAt,value
2022-11-17T00:01:21.361Z,3.60
2022-11-17T00:03:49.178Z,3.50
2022-11-17T00:06:16.871Z,3.17
2022-11-17T00:08:43.649Z,3.53
2022-11-17T00:11:10.730Z,3.83
2022-11-17T00:13:56.073Z,4.00
2022-11-17T00:16:23.198Z,3.65
2022-11-17T00:19:08.784Z,3.50
2022-11-17T00:21:35.750Z,3.45
2022-11-17T00:24:02.492Z,3.40
2022-11-17T00:26:32.240Z,3.90
2022-11-17T00:29:01.112Z,3.15
2022-11-17T00:31:48.085Z,3.22
2022-11-17T00:34:17.563Z,3.20
2022-11-17T00:36:50.056Z,3.30
2022-11-17T00:39:18.894Z,3.08
2022-11-17T00:41:45.773Z,3.25
2022-11-17T00:44:12.844Z,2.92
2022-11-17T00:46:40.448Z,3.08
2022-11-17T00:49:07.958Z,2.97
2022-11-17T00:51:34.878Z,3.13
2022-11-17T00:54:01.963Z,3.30
2022-11-17T00:56:28.918Z,3.50
2022-11-17T00:58:56.064Z,3.30
2022-11-17T01:01:22.880Z,3.30
2022-11-17T01:03:49.646Z,3.38
2022-11-17T01:06:18.627Z,3.50
2022-11-17T01:08:45.372Z,3.30
2022-11-17T01:11:15.515Z,3.38
2022-11-17T01:13:43.594Z,3.50
2022-11-17T01:16:13.349Z,3.45
2022-11-17T01:18:40.782Z,3.97
2022-11-17T01:21:13.406Z,4.40
2022-11-17T01:23:41.557Z,3.83
2022-11-17T01:26:13.410Z,4.25
2022-11-17T01:28:40.700Z,3.65
2022-11-17T01:31:16.378Z,3.92
2022-11-17T01:33:43.672Z,4.00
2022-11-17T01:36:16.198Z,3.40
2022-11-17T01:38:43.505Z,3.72
2022-11-17T01:41:19.030Z,3.53
2022-11-17T01:43:56.694Z,3.85
2022-11-17T01:46:32.517Z,3.40
2022-11-17T01:49:05.427Z,3.47
2022-11-17T01:51:33.787Z,3.33
2022-11-17T01:54:00.584Z,2.85
2022-11-17T01:56:32.523Z,3.47
2022-11-17T01:59:04.312Z,3.30
2022-11-17T02:01:32.071Z,3.28
2022-11-17T02:03:58.898Z,3.22
2022-11-17T02:06:31.318Z,3.05
2022-11-17T02:08:58.212Z,3.85
2022-11-17T02:11:25.860Z,3.13
2022-11-17T02:13:53.719Z,3.30
2022-11-17T02:16:20.450Z,3.10
2022-11-17T02:18:47.856Z,3.53
2022-11-17T02:21:40.815Z,2.88
2022-11-17T02:24:29.469Z,3.08
2022-11-17T02:27:27.578Z,3.28
2022-11-17T02:30:05.464Z,3.05
2022-11-17T02:32:57.810Z,3.30
2022-11-17T02:35:43.480Z,3.63
2022-11-17T02:38:28.633Z,3.17
2022-11-17T02:43:50.197Z,2.90
2022-11-17T02:46:19.517Z,2.90
2022-11-17T02:48:56.071Z,3.45
2022-11-17T02:51:23.733Z,2.92
2022-11-17T02:53:52.930Z,2.55
2022-11-17T02:56:19.817Z,2.97
2022-11-17T02:58:52.208Z,2.72
2022-11-17T03:01:22.114Z,2.30
2022-11-17T03:04:06.939Z,3.03
2022-11-17T03:06:42.569Z,2.60
2022-11-17T03:09:23.229Z,2.30
2022-11-17T03:11:55.975Z,2.53
2022-11-17T03:14:34.022Z,2.40
2022-11-17T03:17:19.675Z,2.63
2022-11-17T03:19:58.544Z,2.63
2022-11-17T03:22:32.132Z,2.67
2022-11-17T03:25:03.100Z,3.03
2022-11-17T03:27:39.319Z,2.67
2022-11-17T03:30:08.433Z,3.15
2022-11-17T03:32:40.635Z,2.85
2022-11-17T03:35:14.449Z,3.05
2022-11-17T03:37:46.355Z,3.33
2022-11-17T03:40:14.485Z,3.00
2022-11-17T03:42:44.473Z,3.10
2022-11-17T03:45:40.436Z,3.10
2022-11-17T03:48:13.248Z,3.10
2022-11-17T03:51:11.279Z,2.90
2022-11-17T03:53:38.550Z,3.25
2022-11-17T03:56:29.454Z,3.10
2022-11-17T03:59:00.621Z,3.50
2022-11-17T04:01:29.572Z,3.08
2022-11-17T04:03:56.396Z,3.25
2022-11-17T04:06:23.123Z,3.70
2022-11-17T04:08:49.773Z,3.33
2022-11-17T04:11:35.051Z,3.10
2022-11-17T04:14:20.371Z,3.33
2022-11-17T04:16:47.120Z,3.30
2022-11-17T04:19:13.739Z,3.53
2022-11-17T04:21:40.515Z,3.80
2022-11-17T04:24:07.611Z,3.67
2022-11-17T04:26:52.846Z,3.63
2022-11-17T04:29:19.550Z,4.10
2022-11-17T04:31:46.216Z,4.15
2022-11-17T04:34:12.983Z,4.35
2022-11-17T04:36:44.113Z,4.00
2022-11-17T04:39:12.340Z,4.20
2022-11-17T04:41:54.870Z,4.70
2022-11-17T04:44:26.343Z,4.03
2022-11-17T04:46:54.014Z,4.15
2022-11-17T04:49:21.807Z,4.50
2022-11-17T04:51:48.677Z,4.63
2022-11-17T04:54:18.581Z,4.72
2022-11-17T04:56:45.724Z,4.95
2022-11-17T04:59:12.657Z,4.43
2022-11-17T05:01:39.634Z,4.55
2022-11-17T05:04:11.486Z,4.55
2022-11-17T05:06:43.579Z,5.00
2022-11-17T05:09:17.162Z,4.57
2022-11-17T05:12:02.794Z,4.00
2022-11-17T05:14:30.367Z,4.40
2022-11-17T05:17:10.771Z,4.88
2022-11-17T05:19:38.753Z,4.88
2022-11-17T05:22:28.776Z,5.10
2022-11-17T05:24:56.119Z,5.60
2022-11-17T05:27:23.341Z,5.40
2022-11-17T05:29:50.050Z,6.30
2022-11-17T05:32:16.818Z,6.45
2022-11-17T05:34:43.683Z,7.10
2022-11-17T05:37:10.445Z,6.30
2022-11-17T05:39:37.123Z,6.30
2022-11-17T05:42:04.450Z,6.97
2022-11-17T05:44:31.107Z,7.13
2022-11-17T05:46:57.820Z,6.90
2022-11-17T05:49:24.505Z,7.78
2022-11-17T05:51:52.865Z,7.45
2022-11-17T05:54:19.896Z,7.03
2022-11-17T05:56:51.138Z,6.72
2022-11-17T05:59:31.588Z,6.88
2022-11-17T06:02:01.118Z,6.63
2022-11-17T06:04:28.931Z,6.55
2022-11-17T06:06:59.436Z,6.30
2022-11-17T06:09:28.462Z,4.93
2022-11-17T06:11:55.151Z,5.32
2022-11-17T06:14:21.873Z,4.38
2022-11-17T06:16:51.496Z,4.30
2022-11-17T06:19:21.664Z,1.98
2022-11-17T06:22:10.993Z,1.70
2022-11-17T06:24:36.980Z,1.30
2022-11-17T06:27:04.623Z,1.35
2022-11-17T06:29:31.597Z,1.25
2022-11-17T06:31:58.649Z,1.40
2022-11-17T06:34:26.615Z,1.90
2022-11-17T06:36:53.604Z,3.65
2022-11-17T06:39:20.311Z,4.57
2022-11-17T06:41:47.055Z,4.30
2022-11-17T06:44:13.705Z,4.38
2022-11-17T06:46:42.704Z,4.15
2022-11-17T06:49:12.960Z,4.07
2022-11-17T06:51:44.785Z,3.75
2022-11-17T06:54:12.855Z,3.70
2022-11-17T06:56:39.577Z,3.45
2022-11-17T06:59:06.254Z,2.92
2022-11-17T07:01:32.996Z,2.95
2022-11-17T07:03:59.861Z,3.20
2022-11-17T07:06:26.797Z,3.03
2022-11-17T07:08:53.518Z,3.70
2022-11-17T07:11:20.205Z,4.00
2022-11-17T07:13:46.857Z,4.55
2022-11-17T07:16:21.685Z,4.82
2022-11-17T07:18:50.180Z,5.00
2022-11-17T07:21:17.824Z,4.30
2022-11-17T07:23:47.551Z,4.88
2022-11-17T07:26:14.380Z,3.00
2022-11-17T07:28:41.251Z,2.92
2022-11-17T07:31:08.814Z,2.13
2022-11-17T07:33:35.840Z,2.35
2022-11-17T07:36:09.679Z,1.65
2022-11-17T07:38:37.998Z,1.57
2022-11-17T07:41:05.671Z,1.10
2022-11-17T07:43:33.330Z,1.17
2022-11-17T07:46:13.167Z,1.08
2022-11-17T07:48:40.936Z,0.93
2022-11-17T07:51:07.690Z,0.90
2022-11-17T07:53:35.284Z,0.60
2022-11-17T07:56:07.381Z,1.10
2022-11-17T07:58:34.548Z,0.93
2022-11-17T08:01:06.314Z,1.00
2022-11-17T08:03:33.581Z,0.70
2022-11-17T08:06:07.076Z,1.00
2022-11-17T08:08:34.802Z,0.90
2022-11-17T08:11:06.780Z,1.00
2022-11-17T08:13:34.012Z,0.95
2022-11-17T08:16:01.190Z,0.90
2022-11-17T08:18:28.910Z,0.52
2022-11-17T08:21:06.459Z,0.60
2022-11-17T08:23:34.034Z,0.60
2022-11-17T08:26:02.494Z,0.63
2022-11-17T08:28:29.450Z,0.40
2022-11-17T08:30:56.190Z,0.70
2022-11-17T08:33:22.887Z,0.70
2022-11-17T08:35:49.522Z,0.65
2022-11-17T08:38:16.285Z,0.60
2022-11-17T08:40:43.059Z,0.90
2022-11-17T08:43:09.837Z,0.88
2022-11-17T08:45:36.454Z,1.15
2022-11-17T08:48:04.191Z,1.00
2022-11-17T08:50:30.841Z,1.27
2022-11-17T08:52:57.465Z,1.17
2022-11-17T08:55:26.126Z,1.25
2022-11-17T08:57:52.993Z,1.00
2022-11-17T09:00:21.687Z,0.82
2022-11-17T09:02:48.407Z,1.00
2022-11-17T09:05:15.110Z,1.20
2022-11-17T09:07:41.846Z,1.00
2022-11-17T09:10:10.923Z,1.08
2022-11-17T09:12:37.779Z,0.85
2022-11-17T09:15:05.459Z,1.08
2022-11-17T09:17:32.258Z,1.10
2022-11-17T09:19:58.872Z,0.90
2022-11-17T09:22:25.554Z,1.00
2022-11-17T09:24:52.253Z,1.00
2022-11-17T09:27:19.081Z,0.90
2022-11-17T09:29:45.715Z,0.90
2022-11-17T09:32:13.382Z,1.10
2022-11-17T09:34:40.072Z,0.90
2022-11-17T09:37:06.720Z,1.13
2022-11-17T09:39:33.325Z,1.00
2022-11-17T09:42:00.160Z,1.10
2022-11-17T09:44:40.629Z,1.40
2022-11-17T09:47:30.280Z,1.10
2022-11-17T09:50:13.542Z,1.05
2022-11-17T09:52:59.585Z,0.70
2022-11-17T09:55:33.946Z,0.95
2022-11-17T09:58:16.345Z,0.70
2022-11-17T10:00:48.742Z,1.50
2022-11-17T10:03:26.829Z,1.60
2022-11-17T10:05:53.564Z,1.20
2022-11-17T10:08:52.596Z,1.42
2022-11-17T10:11:34.936Z,1.40
2022-11-17T10:14:06.230Z,1.08
2022-11-17T10:16:33.011Z,1.02
2022-11-17T10:19:22.129Z,1.20
2022-11-17T10:21:51.997Z,1.25
2022-11-17T10:24:39.137Z,1.35
2022-11-17T10:27:15.777Z,1.25
2022-11-17T10:29:43.736Z,1.00
2022-11-17T10:32:14.861Z,1.75
2022-11-17T10:34:41.921Z,1.08
2022-11-17T10:37:17.428Z,1.02
2022-11-17T10:39:44.181Z,1.05
2022-11-17T10:42:29.835Z,1.52
2022-11-17T10:44:58.547Z,1.13
2022-11-17T10:47:30.616Z,0.85
2022-11-17T10:50:20.892Z,1.15
2022-11-17T10:52:48.790Z,1.52
2022-11-17T10:55:18.876Z,1.15
2022-11-17T10:57:48.504Z,1.13
2022-11-17T11:00:30.740Z,1.30
2022-11-17T11:03:25.544Z,1.15
2022-11-17T11:05:58.032Z,1.00
2022-11-17T11:08:29.504Z,1.10
2022-11-17T11:10:57.235Z,0.80
2022-11-17T11:13:40.373Z,1.10
2022-11-17T11:16:10.765Z,0.90
2022-11-17T11:18:38.720Z,1.00
2022-11-17T11:21:22.077Z,1.25
2022-11-17T11:24:01.275Z,1.20
2022-11-17T11:26:57.193Z,0.90
2022-11-17T11:29:59.483Z,0.60
2022-11-17T11:32:35.696Z,0.60
2022-11-17T11:35:40.811Z,0.70
2022-11-17T11:38:30.496Z,0.77
2022-11-17T11:41:23.457Z,0.63
2022-11-17T11:44:02.825Z,0.50
2022-11-17T11:46:49.409Z,0.90
2022-11-17T11:49:38.302Z,0.65
2022-11-17T11:52:10.202Z,0.82
2022-11-17T11:55:17.631Z,1.23
2022-11-17T11:57:50.490Z,0.90
2022-11-17T12:00:18.200Z,1.13
2022-11-17T12:02:58.072Z,0.98
2022-11-17T12:06:25.824Z,0.98
2022-11-17T12:09:02.025Z,0.93
2022-11-17T12:11:47.873Z,1.50
2022-11-17T12:14:17.691Z,1.23
2022-11-17T12:16:45.441Z,0.82
2022-11-17T12:19:48.553Z,1.40
2022-11-17T12:22:30.010Z,1.23
2022-11-17T12:25:03.914Z,1.20
2022-11-17T12:27:34.461Z,1.50
2022-11-17T12:30:02.471Z,1.27
2022-11-17T12:32:44.533Z,1.33
2022-11-17T12:35:27.693Z,1.67
2022-11-17T12:38:22.473Z,1.52
2022-11-17T12:40:49.742Z,1.27
2022-11-17T12:43:16.404Z,1.42
2022-11-17T12:45:55.449Z,1.30
2022-11-17T12:48:35.922Z,1.80
2022-11-17T12:51:21.636Z,1.30
2022-11-17T12:54:12.234Z,1.95
2022-11-17T12:56:44.100Z,1.23
2022-11-17T12:59:13.558Z,1.33
2022-11-17T13:01:59.565Z,1.70
2022-11-17T13:04:48.005Z,1.55
2022-11-17T13:07:21.944Z,1.38
2022-11-17T13:09:53.874Z,1.00
2022-11-17T13:12:26.339Z,1.55
2022-11-17T13:15:21.727Z,1.00
2022-11-17T13:17:49.507Z,1.30
2022-11-17T13:20:27.377Z,1.00
2022-11-17T13:23:04.527Z,1.60
2022-11-17T13:25:31.181Z,1.50
2022-11-17T13:28:04.181Z,1.67
2022-11-17T13:30:33.214Z,1.50
2022-11-17T13:33:02.344Z,1.42
2022-11-17T13:35:36.358Z,1.35
2022-11-17T13:38:21.046Z,1.27
2022-11-17T13:40:49.797Z,1.80
2022-11-17T13:43:19.764Z,1.60
2022-11-17T13:45:47.562Z,1.58
2022-11-17T13:48:34.191Z,1.85
2022-11-17T13:51:19.728Z,1.77
2022-11-17T13:53:57.421Z,1.63
2022-11-17T13:56:37.292Z,2.08
2022-11-17T13:59:17.998Z,1.33
2022-11-17T14:01:45.232Z,1.92
2022-11-17T14:04:23.442Z,2.08
2022-11-17T14:07:00.232Z,1.77
2022-11-17T14:09:29.032Z,1.40
2022-11-17T14:11:56.056Z,1.65
2022-11-17T14:14:34.572Z,1.60
2022-11-17T14:17:12.921Z,1.83
2022-11-17T14:19:39.844Z,1.90
2022-11-17T14:22:09.618Z,1.52
2022-11-17T14:24:37.136Z,1.83
2022-11-17T14:27:12.240Z,2.05
2022-11-17T14:29:38.893Z,1.83
2022-11-17T14:32:05.660Z,1.88
2022-11-17T14:34:32.320Z,1.80
2022-11-17T14:36:58.983Z,2.13
2022-11-17T14:39:25.623Z,2.22
2022-11-17T14:41:52.315Z,1.75
2022-11-17T14:44:19.068Z,2.45
2022-11-17T14:46:45.826Z,2.17
2022-11-17T14:49:12.926Z,2.03
2022-11-17T14:51:39.989Z,2.00
2022-11-17T14:54:06.767Z,1.95
2022-11-17T14:56:34.759Z,2.00
2022-11-17T14:59:02.157Z,1.98
2022-11-17T15:01:31.460Z,2.10
2022-11-17T15:04:11.004Z,2.17
2022-11-17T15:06:47.834Z,2.22
2022-11-17T15:09:16.334Z,2.22
2022-11-17T15:11:43.033Z,2.25
2022-11-17T15:14:10.825Z,1.90
2022-11-17T15:16:38.422Z,2.85
2022-11-17T15:19:06.721Z,2.22
2022-11-17T15:21:33.728Z,2.00
2022-11-17T15:24:02.195Z,2.80
2022-11-17T15:26:28.894Z,1.83
2022-11-17T15:28:57.705Z,2.33
2022-11-17T15:31:24.400Z,2.05
2022-11-17T15:33:51.092Z,2.00
2022-11-17T15:36:20.229Z,2.05
2022-11-17T15:38:47.754Z,2.20
2022-11-17T15:41:15.604Z,3.30
2022-11-17T15:43:46.657Z,3.38
2022-11-17T15:46:15.358Z,2.53
2022-11-17T15:48:43.622Z,2.10
2022-11-17T15:51:19.207Z,2.25
2022-11-17T15:53:47.362Z,2.03
2022-11-17T15:56:19.373Z,1.95
2022-11-17T15:58:47.134Z,1.80
2022-11-17T16:01:33.483Z,1.80
2022-11-17T16:04:06.551Z,2.33
2022-11-17T16:06:35.506Z,1.85
2022-11-17T16:09:02.668Z,2.85
2022-11-17T16:11:29.439Z,12.35
2022-11-17T16:13:57.315Z,10.10
2022-11-17T16:16:25.853Z,4.50
2022-11-17T16:18:52.579Z,3.47
2022-11-17T16:21:19.380Z,2.92
2022-11-17T16:23:48.484Z,4.00
2022-11-17T16:26:17.186Z,2.70
2022-11-17T16:28:44.070Z,2.38
2022-11-17T16:31:28.373Z,1.63
2022-11-17T16:34:31.846Z,1.57
2022-11-17T16:36:58.601Z,1.70
2022-11-17T16:39:25.245Z,1.75
2022-11-17T16:41:52.586Z,2.03
2022-11-17T16:44:20.236Z,2.10
2022-11-17T16:46:48.572Z,2.28
2022-11-17T16:49:17.794Z,2.22
2022-11-17T16:51:52.527Z,2.25
2022-11-17T16:54:20.005Z,1.50
2022-11-17T16:56:46.773Z,2.78
2022-11-17T16:59:14.184Z,1.70
2022-11-17T17:01:41.208Z,1.55
2022-11-17T17:04:09.988Z,1.95
2022-11-17T17:06:39.770Z,2.00
2022-11-17T17:09:08.692Z,2.33
2022-11-17T17:11:36.093Z,2.50
2022-11-17T17:14:05.134Z,2.13
2022-11-17T17:16:33.388Z,2.08
2022-11-17T17:19:01.964Z,2.00
2022-11-17T17:21:29.548Z,2.28
2022-11-17T17:23:56.675Z,1.75
2022-11-17T17:26:24.951Z,1.55
2022-11-17T17:28:54.700Z,1.40
2022-11-17T17:31:22.590Z,1.23
2022-11-17T17:33:50.401Z,1.40
2022-11-17T17:36:19.752Z,1.15
2022-11-17T17:38:51.802Z,1.25
2022-11-17T17:41:22.755Z,1.30
2022-11-17T17:43:54.919Z,1.23
2022-11-17T17:46:21.600Z,1.00
2022-11-17T17:48:48.269Z,1.20
2022-11-17T17:51:20.095Z,1.10
2022-11-17T17:53:50.347Z,1.65
2022-11-17T17:56:19.102Z,1.00
2022-11-17T17:58:48.518Z,0.90
2022-11-17T18:01:20.733Z,1.00
2022-11-17T18:03:49.470Z,1.25
2022-11-17T18:06:21.093Z,1.27
2022-11-17T18:08:48.580Z,1.38
2022-11-17T18:11:18.270Z,1.38
2022-11-17T18:13:46.644Z,0.95
2022-11-17T18:16:19.098Z,0.80
2022-11-17T18:18:46.168Z,0.82
2022-11-17T18:21:19.838Z,0.70
2022-11-17T18:23:46.592Z,1.00
2022-11-17T18:26:19.566Z,1.02
2022-11-17T18:29:15.774Z,1.90
2022-11-17T18:31:42.938Z,2.00
2022-11-17T18:34:18.804Z,1.88
2022-11-17T18:36:45.632Z,1.83
2022-11-17T18:39:12.470Z,2.15
2022-11-17T18:41:39.187Z,3.08
2022-11-17T18:44:05.928Z,4.38
2022-11-17T18:46:33.296Z,3.30
2022-11-17T18:49:00.641Z,2.70
2022-11-17T18:51:29.663Z,2.80
2022-11-17T18:53:58.330Z,2.72
2022-11-17T18:56:27.108Z,2.40
2022-11-17T18:58:54.854Z,2.20
2022-11-17T19:01:23.928Z,1.95
2022-11-17T19:03:53.141Z,1.13
2022-11-17T19:06:21.616Z,0.90
2022-11-17T19:08:49.121Z,0.95
2022-11-17T19:11:17.017Z,0.77
2022-11-17T19:13:44.689Z,0.70
2022-11-17T19:16:15.583Z,0.60
2022-11-17T19:18:43.026Z,0.70
2022-11-17T19:21:13.032Z,0.90
2022-11-17T19:23:41.911Z,1.00
2022-11-17T19:26:11.910Z,0.65
2022-11-17T19:28:39.352Z,1.73
2022-11-17T19:31:08.668Z,0.50
2022-11-17T19:33:36.895Z,0.50
2022-11-17T19:36:05.963Z,0.50
2022-11-17T19:38:33.945Z,0.70
2022-11-17T19:41:12.333Z,0.80
2022-11-17T19:43:44.847Z,0.63
2022-11-17T19:46:14.674Z,0.60
2022-11-17T19:48:42.515Z,0.50
2022-11-17T19:51:13.668Z,0.68
2022-11-17T19:53:40.724Z,0.88
2022-11-17T19:56:07.722Z,0.77
2022-11-17T19:58:34.429Z,0.50
2022-11-17T20:01:11.212Z,0.60
2022-11-17T20:03:38.556Z,0.50
2022-11-17T20:06:05.821Z,3.03
2022-11-17T20:08:33.196Z,0.70
2022-11-17T20:11:14.546Z,0.50
2022-11-17T20:13:44.080Z,1.00
2022-11-17T20:16:13.664Z,1.30
2022-11-17T20:18:41.635Z,1.20
2022-11-17T20:21:09.545Z,1.00
2022-11-17T20:23:37.383Z,0.90
2022-11-17T20:26:10.575Z,0.55
2022-11-17T20:28:38.288Z,0.40
2022-11-17T20:31:11.023Z,0.40
2022-11-17T20:33:38.477Z,0.20
2022-11-17T20:36:06.921Z,0.50
2022-11-17T20:38:34.123Z,0.40
2022-11-17T20:41:01.117Z,0.30
2022-11-17T20:43:28.428Z,0.40
2022-11-17T20:45:57.036Z,0.40
2022-11-17T20:48:24.310Z,0.22
2022-11-17T20:51:02.168Z,0.20
2022-11-17T20:53:29.462Z,0.30
2022-11-17T20:55:57.233Z,0.50
2022-11-17T20:58:28.304Z,0.30
2022-11-17T21:00:55.497Z,0.50
2022-11-17T21:03:22.853Z,0.45
2022-11-17T21:05:59.112Z,0.40
2022-11-17T21:08:27.566Z,0.88
2022-11-17T21:10:58.619Z,0.43
2022-11-17T21:13:25.771Z,0.70
2022-11-17T21:16:25.223Z,0.50
2022-11-17T21:18:51.889Z,0.40
2022-11-17T21:21:18.558Z,0.30
2022-11-17T21:23:45.254Z,0.65
2022-11-17T21:26:19.348Z,0.73
2022-11-17T21:28:46.795Z,0.77
2022-11-17T21:31:15.787Z,0.60
2022-11-17T21:33:43.498Z,0.90
2022-11-17T21:36:12.389Z,0.50
2022-11-17T21:38:39.254Z,0.28
2022-11-17T21:41:10.856Z,0.30
2022-11-17T21:43:39.506Z,0.50
2022-11-17T21:46:09.640Z,0.25
2022-11-17T21:48:37.205Z,0.43
2022-11-17T21:51:04.960Z,0.50
2022-11-17T21:53:31.920Z,0.32
2022-11-17T21:56:05.506Z,0.45
2022-11-17T21:58:33.328Z,0.55
2022-11-17T22:01:07.197Z,0.40
2022-11-17T22:03:34.499Z,0.50
2022-11-17T22:06:08.132Z,0.52
2022-11-17T22:08:37.232Z,0.65
2022-11-17T22:11:09.681Z,0.40
2022-11-17T22:13:36.905Z,0.20
2022-11-17T22:16:09.472Z,0.52
2022-11-17T22:18:36.209Z,0.50
2022-11-17T22:21:03.117Z,0.43
2022-11-17T22:23:30.422Z,0.50
2022-11-17T22:25:59.205Z,0.50
2022-11-17T22:28:26.304Z,0.70
2022-11-17T22:30:53.503Z,0.50
2022-11-17T22:33:21.412Z,0.40
2022-11-17T22:35:48.576Z,0.50
2022-11-17T22:38:15.829Z,0.50
2022-11-17T22:40:42.488Z,0.30
2022-11-17T22:43:14.629Z,0.35
2022-11-17T22:45:42.038Z,0.30
2022-11-17T22:48:09.077Z,0.40
2022-11-17T22:50:36.483Z,0.55
2022-11-17T22:53:03.686Z,0.40
2022-11-17T22:55:32.565Z,0.40
2022-11-17T22:57:59.254Z,0.60
2022-11-17T23:00:26.052Z,0.43
2022-11-17T23:02:52.843Z,0.35
2022-11-17T23:05:19.593Z,0.45
2022-11-17T23:07:46.279Z,0.50
2022-11-17T23:10:13.063Z,0.50
2022-11-17T23:12:39.876Z,0.35
2022-11-17T23:15:07.322Z,0.47
2022-11-17T23:17:34.289Z,0.30
2022-11-17T23:20:00.923Z,0.52
2022-11-17T23:22:27.586Z,0.40
2022-11-17T23:24:54.324Z,0.60
2022-11-17T23:27:20.990Z,0.55
2022-11-17T23:29:47.890Z,0.60
2022-11-17T23:32:14.590Z,0.55
2022-11-17T23:34:41.559Z,0.47
2022-11-17T23:37:08.222Z,0.55
2022-11-17T23:39:34.872Z,0.50
2022-11-17T23:42:01.578Z,0.47
2022-11-17T23:44:28.236Z,0.40
2022-11-17T23:46:55.251Z,0.52
2022-11-17T23:49:21.913Z,0.80
2022-11-17T23:51:48.536Z,0.63
2022-11-17T23:54:15.420Z,0.80
2022-11-17T23:56:42.145Z,0.77
2022-11-17T23:59:08.923Z,0.50
